Cherry Hills Village, Colorado
Current Conditions -  °F | °C
As of 8:53 AM on Thursday 23 Oct 2014 (Local Time) from KAPA Reporting Station
Few Clouds Few Clouds  
Wind Chill: 55°   Ceiling: Unl
Heat Index: 55°   Visibility: 10mi
Dew Point: 34°   Wind: 5mph
Humidity: 45%   Direction: 160°SSE
Pressure: 30.21"   Gusts: NA
Location:  39.6158°N, 104.874°W
Report Text: KAPA 231453Z 16004KT 10SM FEW150 13/01 A3021 RMK AO2 SLP199 T01280011 51011
Loading
Personal Weather Stations






























Interactive Weather Map
Tropical Storm Tracking
New forecast layout! Learn more

10-Day Weather Forecast

Advertisements
Track Severe Weather on mobile